This is the latest recevied weather packets stored in our database for station/object 9D9-WX. If no packets are shown the sender has not sent any weather packets the latest 10 day(s).
| Time | Temp. | Humidity | Pressure | Rain* | Wind** | Luminosity | Snow |
|---|---|---|---|---|---|---|---|
| 1777056312 | 23.33° C | 56% | 977.3 hPa | 0 mm | - | - | - |
| 1777055425 | 23.89° C | 55% | 977.3 hPa | 0 mm | - | - | - |
| 1777054512 | 23.89° C | 55% | 977.3 hPa | 0 mm | - | - | - |
| 1777053629 | 24.44° C | 55% | 977.3 hPa | 0 mm | - | - | - |
| 1777052712 | 23.33° C | 57% | 976.8 hPa | 0 mm | - | - | - |
| 1777051819 | 23.89° C | 52% | 977.2 hPa | 0 mm | - | - | - |
| 1777050911 | 24.44° C | 52% | 977.2 hPa | 0 mm | - | - | - |
| 1777050028 | 25° C | 52% | 977.2 hPa | 0 mm | - | - | - |
| 1777049111 | 24.44° C | 54% | 976.8 hPa | 0 mm | - | - | - |
| 1777048220 | 25° C | 53% | 976.8 hPa | 0 mm | - | - | - |
| 1777047311 | 24.44° C | 53% | 976.8 hPa | 0 mm | - | - | - |
| 1777046430 | 24.44° C | 53% | 976.8 hPa | 0 mm | - | - | - |
| 1777045511 | 23.89° C | 56% | 976.6 hPa | 0 mm | - | - | - |
| 1777044626 | 23.89° C | 56% | 977.1 hPa | 0 mm | - | - | - |
| 1777043710 | 23.33° C | 56% | 977.1 hPa | 0 mm | - | - | - |
| 1777042828 | 23.33° C | 56% | 977.1 hPa | 0 mm | - | - | - |
| 1777041910 | 22.78° C | 61% | 976.6 hPa | 0 mm | - | - | - |
| 1777041021 | 22.22° C | 57% | 977.1 hPa | 0 mm | - | - | - |
| 1777040110 | 22.22° C | 57% | 977.1 hPa | 0 mm | - | - | - |
| 1777039230 | 21.67° C | 57% | 977.1 hPa | 0 mm | - | - | - |
| 1777038311 | 21.67° C | 62% | 977.5 hPa | 0 mm | - | - | - |
| 1777037420 | 21.11° C | 62% | 977.5 hPa | 0 mm | - | - | - |
| 1777036510 | 20° C | 62% | 977.5 hPa | 0 mm | - | - | - |
| 1777035630 | 18.33° C | 62% | 977.5 hPa | 0 mm | - | - | - |
| 1777034710 | 18.33° C | 65% | 977.4 hPa | 0 mm | - | - | - |
* Rain latest hour (hover to see other rain measurements)
** Current wind speed in m/s (hover to see current wind gust speed)